Weather at Andrewsfield

Public forecast

Using degrees Celsius for public forecast. Weather courtesy of forecast.io.

Closest aviation weather report (METAR) to Andrewsfield

Closest report is London Stansted Airport, 8.0 nm (14.7 km) W.

2024/07/20 08:50 (retrieved 17 minutes ago)

EGSS 200850Z AUTO 23008KT 190V260 9999 SCT013 21/17 Q1009

Closest aviation forecast (TAF) to Andrewsfield

Closest forecast is London Stansted Airport, 8.0 nm (14.7 km) W.

2024/07/20 06:00 (retrieved 3 hours ago)

TAF EGSS 200454Z 2006/2112 22004KT 9999 FEW045 PROB30 TEMPO 2006/2007 7000 BKN007 PROB30 TEMPO 2014/2020 7000 SHRA TEMPO 2100/2110 BKN014 BECMG 2103/2106 28010KT PROB30 TEMPO 2104/2110 7000 -RA BKN009